Saga Sapphire — 9HOF8 — position and weather

sailwx.info

Track history (hours):
 
Tides and Currents Weather Stations Pressure Air Temp Water Temp Dewpoint Dewpoint Depression Visibility Wind Speed Wind Dir Waves Ship Positions

Saga Sapphire

Last reported at 2017-Sep-26 00:00 UTC. Time now 2017-Sep-26 04:00 UTC.
Position N 46°48' W 056°42'.

Length 200 m; draft 8.5 m.

Type: Ship. MMSI: 256208000.

Wind from 210 at 9 knots

Barometer 1018.7 mb
Air temperature 15.0 ° C
Visibility: greater than 27.0 NM
Dewpoint 11.3 ° C

Date/timePositionNaut miles runAvg speedWind from/ knotsBaromVisibWave heightAir tempDewpointWater temp
2017-Sep-26 00:00N 46°48' W 056°42'173 6.6 210 / 91018.727.0 15.011.3
2017-Sep-24 21:49N 47°14' W 052°31'17 1.2
2017-Sep-24 08:20N 47°30' W 052°23'412.8
2017-Sep-24 07:59N 47°27' W 052°17'9012.8
2017-Sep-24 01:00N 46°42' W 050°24'31912.3 260 / 401005.0 5.4 15.214.9
2017-Sep-22 23:00N 44°12' W 043°42'54611.1 260 / 22
2017-Sep-20 22:00N 39°54' W 032°54'4915.5 1029.827.0 18.014.9
2017-Sep-20 18:52N 39°32' W 031°58'512.2
2017-Sep-20 18:27N 39°29' W 031°52'512.1
2017-Sep-20 18:00N 39°27' W 031°46'812.2
2017-Sep-20 17:23N 39°23' W 031°37'611.8
2017-Sep-20 16:52N 39°21' W 031°30'412.1
2017-Sep-20 16:30N 39°21' W 031°24'611.9
2017-Sep-20 16:01N 39°20' W 031°17'811.6
2017-Sep-20 15:21N 39°18' W 031°07'411.2
2017-Sep-20 15:00N 39°16' W 031°03'1211.6
2017-Sep-20 14:01N 39°10' W 030°51'611.6
2017-Sep-20 13:30N 39°07' W 030°44'1611.8
2017-Sep-20 12:09N 38°60' W 030°26'212.1
2017-Sep-20 12:00N 38°59' W 030°24'611.5
2017-Sep-20 11:30N 38°56' W 030°18'612.0
2017-Sep-20 11:00N 38°53' W 030°11'612.7
2017-Sep-20 10:30N 38°51' W 030°03'613.0
2017-Sep-20 10:00N 38°48' W 029°56'713.1
2017-Sep-20 09:30N 38°45' W 029°48'612.9
2017-Sep-20 09:00N 38°43' W 029°40'713.5
2017-Sep-20 08:30N 38°40' W 029°33'612.9
2017-Sep-20 08:00N 38°37' W 029°25'612.9
2017-Sep-20 07:30N 38°35' W 029°17'613.0
2017-Sep-20 07:00N 38°32' W 029°10'713.4
2017-Sep-20 06:30N 38°29' W 029°02'713.1
2017-Sep-20 06:00N 38°27' W 028°54'612.6
2017-Sep-20 05:30N 38°25' W 028°47'612.8
2017-Sep-20 05:01N 38°22' W 028°39'612.4
2017-Sep-20 04:30N 38°20' W 028°32'612.3
2017-Sep-20 04:00N 38°18' W 028°24'612.4
2017-Sep-20 03:31N 38°16' W 028°17'612.3
2017-Sep-20 03:00N 38°14' W 028°10'612.7
2017-Sep-20 02:30N 38°10' W 028°03'612.3
2017-Sep-20 02:00N 38°09' W 027°55'612.4
2017-Sep-20 01:31N 38°08' W 027°48'612.3
2017-Sep-20 01:00N 38°06' W 027°40'712.5
2017-Sep-20 00:28N 38°05' W 027°32'613.2
2017-Sep-20 00:00N 38°03' W 027°24'713.6
2017-Sep-19 23:30N 38°02' W 027°16'612.6
2017-Sep-19 23:00N 38°00' W 027°08'612.3
2017-Sep-19 22:30N 37°59' W 027°01'612.7
2017-Sep-19 22:01N 37°57' W 026°53'612.6
2017-Sep-19 21:30N 37°55' W 026°45'713.2
2017-Sep-19 21:01N 37°53' W 026°37'713.7
2017-Sep-19 20:31N 37°52' W 026°29'612.8
2017-Sep-19 20:00N 37°50' W 026°21'713.2
2017-Sep-19 19:30N 37°48' W 026°13'713.4
2017-Sep-19 19:00N 37°47' W 026°05'713.1
2017-Sep-19 18:30N 37°45' W 025°57'612.7
2017-Sep-19 18:00N 37°43' W 025°49'612.3
2017-Sep-19 17:30N 37°43' W 025°41'2 3.8
2017-Sep-19 17:00N 37°44' W 025°40'0 0.0
2017-Sep-19 16:30N 37°44' W 025°40'0 0.0
2017-Sep-19 16:00N 37°44' W 025°40'0 0.0
2017-Sep-19 15:30N 37°44' W 025°40'0 0.0
2017-Sep-19 15:00N 37°44' W 025°40'0 0.0
2017-Sep-19 14:30N 37°44' W 025°40'0 0.0
2017-Sep-19 14:00N 37°44' W 025°40'0 0.0
2017-Sep-19 13:30N 37°44' W 025°40'0 0.0
2017-Sep-19 13:00N 37°44' W 025°40'0 0.0
2017-Sep-19 12:30N 37°44' W 025°40'0 0.0
2017-Sep-19 12:00N 37°44' W 025°40'0 0.0
2017-Sep-19 11:30N 37°44' W 025°40'0 0.0
2017-Sep-19 11:01N 37°44' W 025°40'0 0.0
2017-Sep-19 10:30N 37°44' W 025°40'0 0.0
2017-Sep-19 10:00N 37°44' W 025°40'0 0.0
2017-Sep-19 09:31N 37°44' W 025°40'0 0.0
2017-Sep-19 09:00N 37°44' W 025°40'0 0.0
2017-Sep-19 08:29N 37°44' W 025°40'0 0.1
2017-Sep-19 08:01N 37°44' W 025°40'1 2.4
2017-Sep-19 07:31N 37°43' W 025°39'5 9.7
2017-Sep-19 07:00N 37°40' W 025°34'713.6
2017-Sep-19 06:31N 37°41' W 025°25'612.3
2017-Sep-19 06:00N 37°41' W 025°17'612.1
2017-Sep-19 05:30N 37°42' W 025°10'713.4
2017-Sep-19 05:00N 37°46' W 025°03'713.7
2017-Sep-19 04:30N 37°50' W 024°56'713.9
2017-Sep-19 04:01N 37°55' W 024°50'713.7
2017-Sep-19 03:30N 37°59' W 024°43'713.8
2017-Sep-19 03:00N 38°03' W 024°36'713.7
2017-Sep-19 02:30N 38°08' W 024°29'713.6
2017-Sep-19 02:01N 38°12' W 024°22'713.8
2017-Sep-19 01:30N 38°16' W 024°15'713.9
2017-Sep-19 01:00N 38°20' W 024°08'713.7
2017-Sep-19 00:30N 38°24' W 024°02'7112.9
2017-Sep-18 19:00N 39°06' W 022°48'32215.4 190 / 111025.810.8 22.619.0
2017-Sep-17 22:00N 42°24' W 017°12'20116.8 340 / 111022.4 20.016.5
2017-Sep-17 10:00N 44°30' W 013°36'20315.6 240 / 161018.327.0 16.5 9.9
2017-Sep-16 21:00N 46°36' W 009°48'4815.9 270 / 131018.827.0 14.5 8.6
2017-Sep-16 18:00N 47°06' W 008°54'24014.9 280 / 231016.610.8 14.0 8.911.0
2017-Sep-16 01:58N 49°37' W 004°14'614.4
2017-Sep-16 01:30N 49°41' W 004°06'714.4
2017-Sep-16 01:01N 49°45' W 003°57'714.5
2017-Sep-16 00:31N 49°49' W 003°47'714.9
2017-Sep-16 00:01N 49°53' W 003°38'  
Track history (hours):
 
Tides and Currents Weather Stations Pressure Air Temp Water Temp Dewpoint Dewpoint Depression Visibility Wind Speed Wind Dir Waves Ship Positions

Saga Sapphire

Last reported at 2017-Sep-26 00:00 UTC. Time now 2017-Sep-26 04:00 UTC.
Position N 46°48' W 056°42'.

Length 200 m; draft 8.5 m.

Type: Ship. MMSI: 256208000.

Wind from 210 at 9 knots

Barometer 1018.7 mb
Air temperature 15.0 ° C
Visibility: greater than 27.0 NM
Dewpoint 11.3 ° C

Date/timePositionNaut miles runAvg speedWind from/ knotsBaromVisibWave heightAir tempDewpointWater temp
2017-Sep-26 00:00N 46°48' W 056°42'173 6.6 210 / 91018.727.0 15.011.3
2017-Sep-24 21:49N 47°14' W 052°31'17 1.2
2017-Sep-24 08:20N 47°30' W 052°23'412.8
2017-Sep-24 07:59N 47°27' W 052°17'9012.8
2017-Sep-24 01:00N 46°42' W 050°24'31912.3 260 / 401005.0 5.4 15.214.9
2017-Sep-22 23:00N 44°12' W 043°42'54611.1 260 / 22
2017-Sep-20 22:00N 39°54' W 032°54'4915.5 1029.827.0 18.014.9
2017-Sep-20 18:52N 39°32' W 031°58'512.2
2017-Sep-20 18:27N 39°29' W 031°52'512.1
2017-Sep-20 18:00N 39°27' W 031°46'812.2
2017-Sep-20 17:23N 39°23' W 031°37'611.8
2017-Sep-20 16:52N 39°21' W 031°30'412.1
2017-Sep-20 16:30N 39°21' W 031°24'611.9
2017-Sep-20 16:01N 39°20' W 031°17'811.6
2017-Sep-20 15:21N 39°18' W 031°07'411.2
2017-Sep-20 15:00N 39°16' W 031°03'1211.6
2017-Sep-20 14:01N 39°10' W 030°51'611.6
2017-Sep-20 13:30N 39°07' W 030°44'1611.8
2017-Sep-20 12:09N 38°60' W 030°26'212.1
2017-Sep-20 12:00N 38°59' W 030°24'611.5
2017-Sep-20 11:30N 38°56' W 030°18'612.0
2017-Sep-20 11:00N 38°53' W 030°11'612.7
2017-Sep-20 10:30N 38°51' W 030°03'613.0
2017-Sep-20 10:00N 38°48' W 029°56'713.1
2017-Sep-20 09:30N 38°45' W 029°48'612.9
2017-Sep-20 09:00N 38°43' W 029°40'713.5
2017-Sep-20 08:30N 38°40' W 029°33'612.9
2017-Sep-20 08:00N 38°37' W 029°25'612.9
2017-Sep-20 07:30N 38°35' W 029°17'613.0
2017-Sep-20 07:00N 38°32' W 029°10'713.4
2017-Sep-20 06:30N 38°29' W 029°02'713.1
2017-Sep-20 06:00N 38°27' W 028°54'612.6
2017-Sep-20 05:30N 38°25' W 028°47'612.8
2017-Sep-20 05:01N 38°22' W 028°39'612.4
2017-Sep-20 04:30N 38°20' W 028°32'612.3
2017-Sep-20 04:00N 38°18' W 028°24'612.4
2017-Sep-20 03:31N 38°16' W 028°17'612.3
2017-Sep-20 03:00N 38°14' W 028°10'612.7
2017-Sep-20 02:30N 38°10' W 028°03'612.3
2017-Sep-20 02:00N 38°09' W 027°55'612.4
2017-Sep-20 01:31N 38°08' W 027°48'612.3
2017-Sep-20 01:00N 38°06' W 027°40'712.5
2017-Sep-20 00:28N 38°05' W 027°32'613.2
2017-Sep-20 00:00N 38°03' W 027°24'713.6
2017-Sep-19 23:30N 38°02' W 027°16'612.6
2017-Sep-19 23:00N 38°00' W 027°08'612.3
2017-Sep-19 22:30N 37°59' W 027°01'612.7
2017-Sep-19 22:01N 37°57' W 026°53'612.6
2017-Sep-19 21:30N 37°55' W 026°45'713.2
2017-Sep-19 21:01N 37°53' W 026°37'713.7
2017-Sep-19 20:31N 37°52' W 026°29'612.8
2017-Sep-19 20:00N 37°50' W 026°21'713.2
2017-Sep-19 19:30N 37°48' W 026°13'713.4
2017-Sep-19 19:00N 37°47' W 026°05'713.1
2017-Sep-19 18:30N 37°45' W 025°57'612.7
2017-Sep-19 18:00N 37°43' W 025°49'612.3
2017-Sep-19 17:30N 37°43' W 025°41'2 3.8
2017-Sep-19 17:00N 37°44' W 025°40'0 0.0
2017-Sep-19 16:30N 37°44' W 025°40'0 0.0
2017-Sep-19 16:00N 37°44' W 025°40'0 0.0
2017-Sep-19 15:30N 37°44' W 025°40'0 0.0
2017-Sep-19 15:00N 37°44' W 025°40'0 0.0
2017-Sep-19 14:30N 37°44' W 025°40'0 0.0
2017-Sep-19 14:00N 37°44' W 025°40'0 0.0
2017-Sep-19 13:30N 37°44' W 025°40'0 0.0
2017-Sep-19 13:00N 37°44' W 025°40'0 0.0
2017-Sep-19 12:30N 37°44' W 025°40'0 0.0
2017-Sep-19 12:00N 37°44' W 025°40'0 0.0
2017-Sep-19 11:30N 37°44' W 025°40'0 0.0
2017-Sep-19 11:01N 37°44' W 025°40'0 0.0
2017-Sep-19 10:30N 37°44' W 025°40'0 0.0
2017-Sep-19 10:00N 37°44' W 025°40'0 0.0
2017-Sep-19 09:31N 37°44' W 025°40'0 0.0
2017-Sep-19 09:00N 37°44' W 025°40'0 0.0
2017-Sep-19 08:29N 37°44' W 025°40'0 0.1
2017-Sep-19 08:01N 37°44' W 025°40'1 2.4
2017-Sep-19 07:31N 37°43' W 025°39'5 9.7
2017-Sep-19 07:00N 37°40' W 025°34'713.6
2017-Sep-19 06:31N 37°41' W 025°25'612.3
2017-Sep-19 06:00N 37°41' W 025°17'612.1
2017-Sep-19 05:30N 37°42' W 025°10'713.4
2017-Sep-19 05:00N 37°46' W 025°03'713.7
2017-Sep-19 04:30N 37°50' W 024°56'713.9
2017-Sep-19 04:01N 37°55' W 024°50'713.7
2017-Sep-19 03:30N 37°59' W 024°43'713.8
2017-Sep-19 03:00N 38°03' W 024°36'713.7
2017-Sep-19 02:30N 38°08' W 024°29'713.6
2017-Sep-19 02:01N 38°12' W 024°22'713.8
2017-Sep-19 01:30N 38°16' W 024°15'713.9
2017-Sep-19 01:00N 38°20' W 024°08'713.7
2017-Sep-19 00:30N 38°24' W 024°02'7112.9
2017-Sep-18 19:00N 39°06' W 022°48'32215.4 190 / 111025.810.8 22.619.0
2017-Sep-17 22:00N 42°24' W 017°12'20116.8 340 / 111022.4 20.016.5
2017-Sep-17 10:00N 44°30' W 013°36'20315.6 240 / 161018.327.0 16.5 9.9
2017-Sep-16 21:00N 46°36' W 009°48'4815.9 270 / 131018.827.0 14.5 8.6
2017-Sep-16 18:00N 47°06' W 008°54'24014.9 280 / 231016.610.8 14.0 8.911.0
2017-Sep-16 01:58N 49°37' W 004°14'614.4
2017-Sep-16 01:30N 49°41' W 004°06'714.4
2017-Sep-16 01:01N 49°45' W 003°57'714.5
2017-Sep-16 00:31N 49°49' W 003°47'714.9
2017-Sep-16 00:01N 49°53' W 003°38'  

Dump ship's entire track history